Terminal Aerodrome Forecast
Issued by NWS Tampa Bay Area, FL

Home | Current Version | Previous Version | Text Only | Print | Product List | Glossary On
Versions: 1 2 3 4 5 6 7 8 9 10 11 12 13 14 15 16 17 18 19 20 21 22 23 24 25 26 27
000
FTUS42 KTBW 212100 AAA
TAFTPA
TAF AMD
KTPA 212100Z 2121/2218 27006KT P6SM FEW050 OVC250
     FM212300 VRB03KT P6SM FEW050 BKN250
     FM221400 04006KT P6SM SCT250=

USA.gov is the U.S. government's official web portal to all federal, state and local government web resources and services.